sensor_id;sensor_type;location;lat;lon;timestamp;P1;durP1;ratioP1;P2;durP2;ratioP2
19149;SDS011;9707;49.158;8.632;2023-04-06T00:02:11;7.53;;;5.35;;
19149;SDS011;9707;49.158;8.632;2023-04-06T00:04:36;4.15;;;3.42;;
19149;SDS011;9707;49.158;8.632;2023-04-06T00:07:02;6.13;;;4.55;;
19149;SDS011;9707;49.158;8.632;2023-04-06T00:09:27;5.50;;;4.57;;
19149;SDS011;9707;49.158;8.632;2023-04-06T00:11:52;7.78;;;4.78;;
19149;SDS011;9707;49.158;8.632;2023-04-06T00:14:17;6.50;;;4.88;;
19149;SDS011;9707;49.158;8.632;2023-04-06T00:16:43;7.20;;;4.72;;
19149;SDS011;9707;49.158;8.632;2023-04-06T00:19:08;6.28;;;4.78;;
19149;SDS011;9707;49.158;8.632;2023-04-06T00:21:33;5.32;;;4.57;;
19149;SDS011;9707;49.158;8.632;2023-04-06T00:23:59;7.18;;;4.88;;
19149;SDS011;9707;49.158;8.632;2023-04-06T00:26:24;7.60;;;5.22;;
19149;SDS011;9707;49.158;8.632;2023-04-06T00:28:49;6.80;;;5.32;;
19149;SDS011;9707;49.158;8.632;2023-04-06T00:31:17;7.63;;;4.75;;
19149;SDS011;9707;49.158;8.632;2023-04-06T00:33:42;7.07;;;4.65;;
19149;SDS011;9707;49.158;8.632;2023-04-06T00:36:07;6.00;;;4.07;;
19149;SDS011;9707;49.158;8.632;2023-04-06T00:38:32;7.45;;;4.65;;
19149;SDS011;9707;49.158;8.632;2023-04-06T00:40:58;5.45;;;4.25;;
19149;SDS011;9707;49.158;8.632;2023-04-06T00:43:23;6.07;;;4.22;;
19149;SDS011;9707;49.158;8.632;2023-04-06T00:45:49;5.93;;;4.65;;
19149;SDS011;9707;49.158;8.632;2023-04-06T00:48:14;6.25;;;4.70;;
19149;SDS011;9707;49.158;8.632;2023-04-06T00:50:40;5.13;;;3.88;;
19149;SDS011;9707;49.158;8.632;2023-04-06T00:53:05;6.18;;;4.63;;
19149;SDS011;9707;49.158;8.632;2023-04-06T00:55:30;6.38;;;4.55;;
19149;SDS011;9707;49.158;8.632;2023-04-06T00:57:56;6.25;;;4.68;;
19149;SDS011;9707;49.158;8.632;2023-04-06T01:00:23;6.13;;;4.32;;
19149;SDS011;9707;49.158;8.632;2023-04-06T01:02:49;8.00;;;4.30;;
19149;SDS011;9707;49.158;8.632;2023-04-06T01:05:14;6.68;;;4.95;;
19149;SDS011;9707;49.158;8.632;2023-04-06T01:07:39;6.28;;;4.85;;
19149;SDS011;9707;49.158;8.632;2023-04-06T01:10:05;6.13;;;4.47;;
19149;SDS011;9707;49.158;8.632;2023-04-06T01:12:31;4.65;;;3.90;;
19149;SDS011;9707;49.158;8.632;2023-04-06T01:14:56;5.20;;;4.40;;
19149;SDS011;9707;49.158;8.632;2023-04-06T01:17:21;6.28;;;4.93;;
19149;SDS011;9707;49.158;8.632;2023-04-06T01:19:47;5.95;;;4.35;;
19149;SDS011;9707;49.158;8.632;2023-04-06T01:22:17;6.28;;;4.30;;
19149;SDS011;9707;49.158;8.632;2023-04-06T01:24:42;7.65;;;5.05;;
19149;SDS011;9707;49.158;8.632;2023-04-06T01:27:08;6.07;;;4.25;;
19149;SDS011;9707;49.158;8.632;2023-04-06T01:29:33;5.97;;;4.40;;
19149;SDS011;9707;49.158;8.632;2023-04-06T01:31:58;6.75;;;5.47;;
19149;SDS011;9707;49.158;8.632;2023-04-06T01:34:24;6.10;;;5.03;;
19149;SDS011;9707;49.158;8.632;2023-04-06T01:36:49;7.38;;;5.30;;
19149;SDS011;9707;49.158;8.632;2023-04-06T01:39:15;6.53;;;4.68;;
19149;SDS011;9707;49.158;8.632;2023-04-06T01:41:40;5.68;;;4.47;;
19149;SDS011;9707;49.158;8.632;2023-04-06T01:44:05;5.80;;;4.60;;
19149;SDS011;9707;49.158;8.632;2023-04-06T01:46:31;6.25;;;4.25;;
19149;SDS011;9707;49.158;8.632;2023-04-06T01:48:56;5.57;;;5.00;;
19149;SDS011;9707;49.158;8.632;2023-04-06T01:51:21;6.00;;;4.22;;
19149;SDS011;9707;49.158;8.632;2023-04-06T01:53:46;5.78;;;4.32;;
19149;SDS011;9707;49.158;8.632;2023-04-06T01:56:13;5.03;;;3.90;;
19149;SDS011;9707;49.158;8.632;2023-04-06T01:58:38;6.78;;;4.65;;
19149;SDS011;9707;49.158;8.632;2023-04-06T02:01:03;7.78;;;4.38;;
19149;SDS011;9707;49.158;8.632;2023-04-06T02:03:29;5.35;;;3.90;;
19149;SDS011;9707;49.158;8.632;2023-04-06T02:05:55;6.63;;;4.40;;
19149;SDS011;9707;49.158;8.632;2023-04-06T02:08:20;7.53;;;4.55;;
19149;SDS011;9707;49.158;8.632;2023-04-06T02:10:46;5.22;;;4.25;;
19149;SDS011;9707;49.158;8.632;2023-04-06T02:13:11;6.97;;;5.05;;
19149;SDS011;9707;49.158;8.632;2023-04-06T02:15:36;4.75;;;3.95;;
19149;SDS011;9707;49.158;8.632;2023-04-06T02:18:01;5.32;;;4.35;;
19149;SDS011;9707;49.158;8.632;2023-04-06T02:20:27;4.43;;;3.70;;
19149;SDS011;9707;49.158;8.632;2023-04-06T02:22:52;5.93;;;4.20;;
19149;SDS011;9707;49.158;8.632;2023-04-06T02:25:17;7.28;;;4.40;;
19149;SDS011;9707;49.158;8.632;2023-04-06T02:27:42;7.13;;;4.65;;
19149;SDS011;9707;49.158;8.632;2023-04-06T02:30:08;8.13;;;4.72;;
19149;SDS011;9707;49.158;8.632;2023-04-06T02:32:33;5.22;;;3.75;;
19149;SDS011;9707;49.158;8.632;2023-04-06T02:34:59;7.13;;;4.80;;
19149;SDS011;9707;49.158;8.632;2023-04-06T02:37:25;4.35;;;3.92;;
19149;SDS011;9707;49.158;8.632;2023-04-06T02:39:50;4.85;;;3.72;;
19149;SDS011;9707;49.158;8.632;2023-04-06T02:42:15;5.10;;;3.95;;
19149;SDS011;9707;49.158;8.632;2023-04-06T02:44:41;6.93;;;4.40;;
19149;SDS011;9707;49.158;8.632;2023-04-06T02:47:07;4.82;;;4.13;;
19149;SDS011;9707;49.158;8.632;2023-04-06T02:49:32;5.57;;;3.78;;
19149;SDS011;9707;49.158;8.632;2023-04-06T02:51:57;7.82;;;4.57;;
19149;SDS011;9707;49.158;8.632;2023-04-06T02:54:22;6.60;;;3.70;;
19149;SDS011;9707;49.158;8.632;2023-04-06T02:56:48;4.68;;;3.95;;
19149;SDS011;9707;49.158;8.632;2023-04-06T02:59:13;5.35;;;4.47;;
19149;SDS011;9707;49.158;8.632;2023-04-06T03:01:38;6.10;;;3.65;;
19149;SDS011;9707;49.158;8.632;2023-04-06T03:04:04;5.32;;;4.20;;
19149;SDS011;9707;49.158;8.632;2023-04-06T03:06:29;6.18;;;4.68;;
19149;SDS011;9707;49.158;8.632;2023-04-06T03:08:55;5.97;;;4.07;;
19149;SDS011;9707;49.158;8.632;2023-04-06T03:11:20;5.43;;;3.90;;
19149;SDS011;9707;49.158;8.632;2023-04-06T03:13:46;4.53;;;4.00;;
19149;SDS011;9707;49.158;8.632;2023-04-06T03:16:11;5.15;;;4.03;;
19149;SDS011;9707;49.158;8.632;2023-04-06T03:18:37;6.18;;;4.03;;
19149;SDS011;9707;49.158;8.632;2023-04-06T03:21:02;6.15;;;4.20;;
19149;SDS011;9707;49.158;8.632;2023-04-06T03:23:27;5.25;;;4.15;;
19149;SDS011;9707;49.158;8.632;2023-04-06T03:25:53;5.05;;;4.22;;
19149;SDS011;9707;49.158;8.632;2023-04-06T03:28:18;6.05;;;4.50;;
19149;SDS011;9707;49.158;8.632;2023-04-06T03:30:43;5.88;;;4.18;;
19149;SDS011;9707;49.158;8.632;2023-04-06T03:33:09;5.63;;;4.25;;
19149;SDS011;9707;49.158;8.632;2023-04-06T03:35:34;4.80;;;4.13;;
19149;SDS011;9707;49.158;8.632;2023-04-06T03:38:01;6.97;;;4.28;;
19149;SDS011;9707;49.158;8.632;2023-04-06T03:40:26;7.13;;;4.65;;
19149;SDS011;9707;49.158;8.632;2023-04-06T03:42:52;6.63;;;4.35;;
19149;SDS011;9707;49.158;8.632;2023-04-06T03:45:17;5.43;;;4.30;;
19149;SDS011;9707;49.158;8.632;2023-04-06T03:47:42;5.85;;;4.05;;
19149;SDS011;9707;49.158;8.632;2023-04-06T03:50:08;6.72;;;4.10;;
19149;SDS011;9707;49.158;8.632;2023-04-06T03:52:34;4.97;;;3.95;;
19149;SDS011;9707;49.158;8.632;2023-04-06T03:55:00;5.43;;;4.35;;
19149;SDS011;9707;49.158;8.632;2023-04-06T03:57:25;8.10;;;5.10;;
19149;SDS011;9707;49.158;8.632;2023-04-06T03:59:50;4.78;;;3.88;;
19149;SDS011;9707;49.158;8.632;2023-04-06T04:02:15;6.28;;;4.60;;
19149;SDS011;9707;49.158;8.632;2023-04-06T04:04:40;4.68;;;4.20;;
19149;SDS011;9707;49.158;8.632;2023-04-06T04:07:06;6.80;;;4.50;;
19149;SDS011;9707;49.158;8.632;2023-04-06T04:09:31;5.28;;;4.50;;
19149;SDS011;9707;49.158;8.632;2023-04-06T04:11:56;7.97;;;4.63;;
19149;SDS011;9707;49.158;8.632;2023-04-06T04:14:21;6.47;;;4.55;;
19149;SDS011;9707;49.158;8.632;2023-04-06T04:16:47;5.63;;;4.65;;
19149;SDS011;9707;49.158;8.632;2023-04-06T04:19:12;8.07;;;5.22;;
19149;SDS011;9707;49.158;8.632;2023-04-06T04:21:44;5.70;;;4.38;;
19149;SDS011;9707;49.158;8.632;2023-04-06T04:24:11;5.18;;;4.68;;
19149;SDS011;9707;49.158;8.632;2023-04-06T04:26:36;6.47;;;4.97;;
19149;SDS011;9707;49.158;8.632;2023-04-06T04:29:03;8.75;;;4.60;;
19149;SDS011;9707;49.158;8.632;2023-04-06T04:31:28;9.10;;;5.40;;
19149;SDS011;9707;49.158;8.632;2023-04-06T04:33:53;8.05;;;4.40;;
19149;SDS011;9707;49.158;8.632;2023-04-06T04:36:18;10.90;;;5.13;;
19149;SDS011;9707;49.158;8.632;2023-04-06T04:38:44;5.40;;;4.63;;
19149;SDS011;9707;49.158;8.632;2023-04-06T04:41:09;5.90;;;4.10;;
19149;SDS011;9707;49.158;8.632;2023-04-06T04:43:34;5.15;;;3.88;;
19149;SDS011;9707;49.158;8.632;2023-04-06T04:46:00;8.90;;;5.00;;
19149;SDS011;9707;49.158;8.632;2023-04-06T04:48:25;6.63;;;4.28;;
19149;SDS011;9707;49.158;8.632;2023-04-06T04:50:51;6.38;;;4.30;;
19149;SDS011;9707;49.158;8.632;2023-04-06T04:53:16;6.75;;;4.35;;
19149;SDS011;9707;49.158;8.632;2023-04-06T04:55:41;6.72;;;5.30;;
19149;SDS011;9707;49.158;8.632;2023-04-06T04:58:06;7.22;;;4.88;;
19149;SDS011;9707;49.158;8.632;2023-04-06T05:00:33;7.65;;;5.70;;
19149;SDS011;9707;49.158;8.632;2023-04-06T05:02:59;7.10;;;4.78;;
19149;SDS011;9707;49.158;8.632;2023-04-06T05:05:24;7.10;;;4.68;;
19149;SDS011;9707;49.158;8.632;2023-04-06T05:07:50;8.75;;;5.57;;
19149;SDS011;9707;49.158;8.632;2023-04-06T05:10:15;7.57;;;5.03;;
19149;SDS011;9707;49.158;8.632;2023-04-06T05:12:40;6.13;;;4.53;;
19149;SDS011;9707;49.158;8.632;2023-04-06T05:15:06;6.43;;;5.13;;
19149;SDS011;9707;49.158;8.632;2023-04-06T05:17:31;6.32;;;5.05;;
19149;SDS011;9707;49.158;8.632;2023-04-06T05:19:58;8.38;;;5.22;;
19149;SDS011;9707;49.158;8.632;2023-04-06T05:22:23;7.45;;;4.93;;
19149;SDS011;9707;49.158;8.632;2023-04-06T05:24:48;5.95;;;4.85;;
19149;SDS011;9707;49.158;8.632;2023-04-06T05:27:14;9.30;;;5.38;;
19149;SDS011;9707;49.158;8.632;2023-04-06T05:29:39;5.07;;;4.00;;
19149;SDS011;9707;49.158;8.632;2023-04-06T05:32:04;6.50;;;4.75;;
19149;SDS011;9707;49.158;8.632;2023-04-06T05:34:31;7.20;;;5.50;;
19149;SDS011;9707;49.158;8.632;2023-04-06T05:36:56;6.45;;;5.20;;
19149;SDS011;9707;49.158;8.632;2023-04-06T05:39:21;8.18;;;5.72;;
19149;SDS011;9707;49.158;8.632;2023-04-06T05:41:46;7.47;;;5.00;;
19149;SDS011;9707;49.158;8.632;2023-04-06T05:44:13;10.82;;;6.72;;
19149;SDS011;9707;49.158;8.632;2023-04-06T05:46:38;6.65;;;5.18;;
19149;SDS011;9707;49.158;8.632;2023-04-06T05:49:03;8.18;;;4.95;;
19149;SDS011;9707;49.158;8.632;2023-04-06T05:51:28;8.63;;;5.97;;
19149;SDS011;9707;49.158;8.632;2023-04-06T05:53:54;9.02;;;6.30;;
19149;SDS011;9707;49.158;8.632;2023-04-06T05:56:19;6.25;;;4.57;;
19149;SDS011;9707;49.158;8.632;2023-04-06T05:58:45;6.03;;;5.43;;
19149;SDS011;9707;49.158;8.632;2023-04-06T06:01:10;9.10;;;4.78;;
19149;SDS011;9707;49.158;8.632;2023-04-06T06:03:36;6.38;;;5.15;;
19149;SDS011;9707;49.158;8.632;2023-04-06T06:06:01;7.10;;;5.40;;
19149;SDS011;9707;49.158;8.632;2023-04-06T06:08:28;7.57;;;5.20;;
19149;SDS011;9707;49.158;8.632;2023-04-06T06:10:53;8.13;;;5.35;;
19149;SDS011;9707;49.158;8.632;2023-04-06T06:13:19;10.30;;;6.57;;
19149;SDS011;9707;49.158;8.632;2023-04-06T06:15:44;8.82;;;6.38;;
19149;SDS011;9707;49.158;8.632;2023-04-06T06:18:10;10.73;;;6.90;;
19149;SDS011;9707;49.158;8.632;2023-04-06T06:20:35;8.07;;;6.22;;
19149;SDS011;9707;49.158;8.632;2023-04-06T06:23:04;8.90;;;7.05;;
19149;SDS011;9707;49.158;8.632;2023-04-06T06:25:29;9.40;;;6.97;;
19149;SDS011;9707;49.158;8.632;2023-04-06T06:27:55;8.48;;;6.35;;
19149;SDS011;9707;49.158;8.632;2023-04-06T06:30:21;9.73;;;6.72;;
19149;SDS011;9707;49.158;8.632;2023-04-06T06:32:46;10.27;;;6.80;;
19149;SDS011;9707;49.158;8.632;2023-04-06T06:35:11;10.05;;;6.88;;
19149;SDS011;9707;49.158;8.632;2023-04-06T06:37:37;8.95;;;7.18;;
19149;SDS011;9707;49.158;8.632;2023-04-06T06:40:02;11.13;;;7.07;;
19149;SDS011;9707;49.158;8.632;2023-04-06T06:42:27;10.20;;;6.85;;
19149;SDS011;9707;49.158;8.632;2023-04-06T06:44:53;9.23;;;6.90;;
19149;SDS011;9707;49.158;8.632;2023-04-06T06:47:19;8.45;;;5.45;;
19149;SDS011;9707;49.158;8.632;2023-04-06T06:49:44;7.55;;;5.57;;
19149;SDS011;9707;49.158;8.632;2023-04-06T06:52:09;8.13;;;5.22;;
19149;SDS011;9707;49.158;8.632;2023-04-06T06:54:35;9.18;;;6.60;;
19149;SDS011;9707;49.158;8.632;2023-04-06T06:57:00;7.07;;;6.13;;
19149;SDS011;9707;49.158;8.632;2023-04-06T06:59:25;9.32;;;6.18;;
19149;SDS011;9707;49.158;8.632;2023-04-06T07:01:51;9.50;;;6.18;;
19149;SDS011;9707;49.158;8.632;2023-04-06T07:04:16;8.70;;;6.82;;
19149;SDS011;9707;49.158;8.632;2023-04-06T07:06:41;9.35;;;5.85;;
19149;SDS011;9707;49.158;8.632;2023-04-06T07:09:06;9.45;;;8.15;;
19149;SDS011;9707;49.158;8.632;2023-04-06T07:11:32;9.60;;;6.93;;
19149;SDS011;9707;49.158;8.632;2023-04-06T07:13:57;7.43;;;6.10;;
19149;SDS011;9707;49.158;8.632;2023-04-06T07:16:22;7.32;;;5.07;;
19149;SDS011;9707;49.158;8.632;2023-04-06T07:18:47;6.85;;;4.63;;
19149;SDS011;9707;49.158;8.632;2023-04-06T07:21:13;6.57;;;5.30;;
19149;SDS011;9707;49.158;8.632;2023-04-06T07:23:38;7.90;;;5.80;;
19149;SDS011;9707;49.158;8.632;2023-04-06T07:26:03;8.73;;;6.15;;
19149;SDS011;9707;49.158;8.632;2023-04-06T07:28:29;9.32;;;5.47;;
19149;SDS011;9707;49.158;8.632;2023-04-06T07:30:54;7.57;;;4.95;;
19149;SDS011;9707;49.158;8.632;2023-04-06T07:33:19;11.85;;;6.68;;
19149;SDS011;9707;49.158;8.632;2023-04-06T07:35:45;8.40;;;5.18;;
19149;SDS011;9707;49.158;8.632;2023-04-06T07:38:10;7.55;;;5.80;;
19149;SDS011;9707;49.158;8.632;2023-04-06T07:40:35;7.55;;;5.28;;
19149;SDS011;9707;49.158;8.632;2023-04-06T07:43:01;7.50;;;4.82;;
19149;SDS011;9707;49.158;8.632;2023-04-06T07:45:26;8.00;;;4.97;;
19149;SDS011;9707;49.158;8.632;2023-04-06T07:47:52;8.52;;;5.05;;
19149;SDS011;9707;49.158;8.632;2023-04-06T07:50:17;6.88;;;4.95;;
19149;SDS011;9707;49.158;8.632;2023-04-06T07:52:42;8.50;;;4.72;;
19149;SDS011;9707;49.158;8.632;2023-04-06T07:55:08;9.75;;;5.03;;
19149;SDS011;9707;49.158;8.632;2023-04-06T07:57:33;7.50;;;5.13;;
19149;SDS011;9707;49.158;8.632;2023-04-06T07:59:59;6.78;;;4.53;;
19149;SDS011;9707;49.158;8.632;2023-04-06T08:02:24;7.18;;;5.05;;
19149;SDS011;9707;49.158;8.632;2023-04-06T08:04:49;7.07;;;5.57;;
19149;SDS011;9707;49.158;8.632;2023-04-06T08:07:15;6.22;;;4.22;;
19149;SDS011;9707;49.158;8.632;2023-04-06T08:09:40;6.45;;;4.80;;
19149;SDS011;9707;49.158;8.632;2023-04-06T08:12:05;11.23;;;5.50;;
19149;SDS011;9707;49.158;8.632;2023-04-06T08:14:31;5.80;;;4.50;;
19149;SDS011;9707;49.158;8.632;2023-04-06T08:16:56;6.30;;;4.47;;
19149;SDS011;9707;49.158;8.632;2023-04-06T08:19:21;7.43;;;5.05;;
19149;SDS011;9707;49.158;8.632;2023-04-06T08:21:47;6.03;;;4.60;;
19149;SDS011;9707;49.158;8.632;2023-04-06T08:24:12;7.05;;;5.20;;
19149;SDS011;9707;49.158;8.632;2023-04-06T08:26:38;7.50;;;5.03;;
19149;SDS011;9707;49.158;8.632;2023-04-06T08:29:04;8.43;;;5.95;;
19149;SDS011;9707;49.158;8.632;2023-04-06T08:31:32;10.18;;;5.78;;
19149;SDS011;9707;49.158;8.632;2023-04-06T08:33:58;12.02;;;6.30;;
19149;SDS011;9707;49.158;8.632;2023-04-06T08:36:26;8.43;;;5.90;;
19149;SDS011;9707;49.158;8.632;2023-04-06T08:38:51;10.98;;;6.25;;
19149;SDS011;9707;49.158;8.632;2023-04-06T08:41:17;4.47;;;3.83;;
19149;SDS011;9707;49.158;8.632;2023-04-06T08:43:44;7.00;;;5.72;;
19149;SDS011;9707;49.158;8.632;2023-04-06T08:46:12;11.25;;;5.68;;
19149;SDS011;9707;49.158;8.632;2023-04-06T08:48:41;7.97;;;4.53;;
19149;SDS011;9707;49.158;8.632;2023-04-06T08:51:07;5.95;;;4.68;;
19149;SDS011;9707;49.158;8.632;2023-04-06T08:53:37;7.93;;;6.20;;
19149;SDS011;9707;49.158;8.632;2023-04-06T08:56:03;8.13;;;5.95;;
19149;SDS011;9707;49.158;8.632;2023-04-06T08:58:32;12.00;;;6.28;;
19149;SDS011;9707;49.158;8.632;2023-04-06T09:00:59;8.07;;;5.85;;
19149;SDS011;9707;49.158;8.632;2023-04-06T09:03:26;7.25;;;5.82;;
19149;SDS011;9707;49.158;8.632;2023-04-06T09:05:54;7.78;;;6.03;;
19149;SDS011;9707;49.158;8.632;2023-04-06T09:08:19;8.02;;;6.43;;
19149;SDS011;9707;49.158;8.632;2023-04-06T09:10:45;8.10;;;5.90;;
19149;SDS011;9707;49.158;8.632;2023-04-06T09:13:11;8.32;;;6.10;;
19149;SDS011;9707;49.158;8.632;2023-04-06T09:15:36;8.80;;;5.75;;
19149;SDS011;9707;49.158;8.632;2023-04-06T09:18:02;9.73;;;6.15;;
19149;SDS011;9707;49.158;8.632;2023-04-06T09:20:28;7.50;;;5.93;;
19149;SDS011;9707;49.158;8.632;2023-04-06T09:22:54;8.30;;;6.63;;
19149;SDS011;9707;49.158;8.632;2023-04-06T09:25:21;6.68;;;5.70;;
19149;SDS011;9707;49.158;8.632;2023-04-06T09:27:48;6.57;;;5.78;;
19149;SDS011;9707;49.158;8.632;2023-04-06T09:30:22;6.05;;;5.45;;
19149;SDS011;9707;49.158;8.632;2023-04-06T09:32:50;7.43;;;5.70;;
19149;SDS011;9707;49.158;8.632;2023-04-06T09:35:17;8.18;;;6.40;;
19149;SDS011;9707;49.158;8.632;2023-04-06T09:37:45;8.65;;;5.50;;
19149;SDS011;9707;49.158;8.632;2023-04-06T09:40:12;8.85;;;5.63;;
19149;SDS011;9707;49.158;8.632;2023-04-06T09:42:40;7.60;;;5.00;;
19149;SDS011;9707;49.158;8.632;2023-04-06T09:45:06;8.90;;;5.38;;
19149;SDS011;9707;49.158;8.632;2023-04-06T09:47:32;7.30;;;4.40;;
19149;SDS011;9707;49.158;8.632;2023-04-06T09:49:58;7.47;;;5.88;;
19149;SDS011;9707;49.158;8.632;2023-04-06T09:52:31;7.47;;;4.70;;
19149;SDS011;9707;49.158;8.632;2023-04-06T09:55:02;7.80;;;4.35;;
19149;SDS011;9707;49.158;8.632;2023-04-06T09:57:37;6.45;;;3.90;;
19149;SDS011;9707;49.158;8.632;2023-04-06T10:00:14;7.05;;;5.65;;
19149;SDS011;9707;49.158;8.632;2023-04-06T10:05:33;6.40;;;4.75;;
19149;SDS011;9707;49.158;8.632;2023-04-06T10:08:08;4.88;;;3.97;;
19149;SDS011;9707;49.158;8.632;2023-04-06T10:10:35;9.45;;;5.13;;
19149;SDS011;9707;49.158;8.632;2023-04-06T10:13:01;9.38;;;5.35;;
19149;SDS011;9707;49.158;8.632;2023-04-06T10:15:30;12.80;;;8.60;;
19149;SDS011;9707;49.158;8.632;2023-04-06T10:17:58;8.90;;;6.18;;
19149;SDS011;9707;49.158;8.632;2023-04-06T10:20:29;9.27;;;5.78;;
19149;SDS011;9707;49.158;8.632;2023-04-06T10:23:05;5.40;;;3.85;;
19149;SDS011;9707;49.158;8.632;2023-04-06T10:25:33;7.50;;;4.53;;
19149;SDS011;9707;49.158;8.632;2023-04-06T10:28:00;7.05;;;5.88;;
19149;SDS011;9707;49.158;8.632;2023-04-06T10:30:32;8.50;;;5.35;;
19149;SDS011;9707;49.158;8.632;2023-04-06T10:32:59;10.07;;;6.53;;
19149;SDS011;9707;49.158;8.632;2023-04-06T10:35:24;7.78;;;5.97;;
19149;SDS011;9707;49.158;8.632;2023-04-06T10:38:02;8.27;;;5.43;;
19149;SDS011;9707;49.158;8.632;2023-04-06T10:40:28;5.80;;;3.70;;
19149;SDS011;9707;49.158;8.632;2023-04-06T10:42:54;8.35;;;6.07;;
19149;SDS011;9707;49.158;8.632;2023-04-06T10:45:21;8.07;;;6.75;;
19149;SDS011;9707;49.158;8.632;2023-04-06T10:47:49;7.60;;;6.00;;
19149;SDS011;9707;49.158;8.632;2023-04-06T10:50:17;9.43;;;6.70;;
19149;SDS011;9707;49.158;8.632;2023-04-06T10:52:45;9.77;;;6.47;;
19149;SDS011;9707;49.158;8.632;2023-04-06T10:55:11;9.95;;;6.75;;
19149;SDS011;9707;49.158;8.632;2023-04-06T10:57:38;18.48;;;11.10;;
19149;SDS011;9707;49.158;8.632;2023-04-06T11:00:06;8.48;;;6.70;;
19149;SDS011;9707;49.158;8.632;2023-04-06T11:02:33;10.75;;;7.32;;
19149;SDS011;9707;49.158;8.632;2023-04-06T11:04:59;8.80;;;5.93;;
19149;SDS011;9707;49.158;8.632;2023-04-06T11:07:25;8.80;;;6.30;;
19149;SDS011;9707;49.158;8.632;2023-04-06T11:09:51;9.07;;;6.07;;
19149;SDS011;9707;49.158;8.632;2023-04-06T11:12:27;9.20;;;5.68;;
19149;SDS011;9707;49.158;8.632;2023-04-06T11:14:57;7.63;;;5.72;;
19149;SDS011;9707;49.158;8.632;2023-04-06T11:17:29;9.00;;;5.97;;
19149;SDS011;9707;49.158;8.632;2023-04-06T11:19:55;7.47;;;5.57;;
19149;SDS011;9707;49.158;8.632;2023-04-06T11:22:22;6.85;;;5.55;;
19149;SDS011;9707;49.158;8.632;2023-04-06T11:24:47;7.25;;;6.03;;
19149;SDS011;9707;49.158;8.632;2023-04-06T11:27:14;7.88;;;4.80;;
19149;SDS011;9707;49.158;8.632;2023-04-06T11:29:41;7.93;;;5.45;;
19149;SDS011;9707;49.158;8.632;2023-04-06T11:32:06;6.78;;;5.10;;
19149;SDS011;9707;49.158;8.632;2023-04-06T11:34:34;6.63;;;4.95;;
19149;SDS011;9707;49.158;8.632;2023-04-06T11:37:02;5.95;;;5.35;;
19149;SDS011;9707;49.158;8.632;2023-04-06T11:39:31;6.30;;;5.25;;
19149;SDS011;9707;49.158;8.632;2023-04-06T11:42:01;6.22;;;4.93;;
19149;SDS011;9707;49.158;8.632;2023-04-06T11:44:34;7.45;;;5.60;;
19149;SDS011;9707;49.158;8.632;2023-04-06T11:47:00;7.00;;;5.10;;
19149;SDS011;9707;49.158;8.632;2023-04-06T11:49:27;7.55;;;5.63;;
19149;SDS011;9707;49.158;8.632;2023-04-06T11:51:54;8.25;;;5.28;;
19149;SDS011;9707;49.158;8.632;2023-04-06T11:54:41;10.73;;;5.88;;
19149;SDS011;9707;49.158;8.632;2023-04-06T11:57:05;10.10;;;5.72;;
19149;SDS011;9707;49.158;8.632;2023-04-06T11:59:32;8.73;;;6.00;;
19149;SDS011;9707;49.158;8.632;2023-04-06T12:01:57;7.30;;;5.20;;
19149;SDS011;9707;49.158;8.632;2023-04-06T12:04:23;7.13;;;5.57;;
19149;SDS011;9707;49.158;8.632;2023-04-06T12:06:48;6.90;;;5.32;;
19149;SDS011;9707;49.158;8.632;2023-04-06T12:09:14;9.65;;;4.82;;
19149;SDS011;9707;49.158;8.632;2023-04-06T12:11:42;7.40;;;5.15;;
19149;SDS011;9707;49.158;8.632;2023-04-06T12:14:07;8.95;;;5.13;;
19149;SDS011;9707;49.158;8.632;2023-04-06T12:16:33;7.07;;;5.20;;
19149;SDS011;9707;49.158;8.632;2023-04-06T12:18:59;5.82;;;4.50;;
19149;SDS011;9707;49.158;8.632;2023-04-06T12:21:26;6.82;;;4.75;;
19149;SDS011;9707;49.158;8.632;2023-04-06T12:23:52;8.18;;;5.47;;
19149;SDS011;9707;49.158;8.632;2023-04-06T12:26:18;8.90;;;5.25;;
19149;SDS011;9707;49.158;8.632;2023-04-06T12:28:43;8.00;;;4.80;;
19149;SDS011;9707;49.158;8.632;2023-04-06T12:31:14;6.82;;;4.60;;
19149;SDS011;9707;49.158;8.632;2023-04-06T12:33:40;7.10;;;5.15;;
19149;SDS011;9707;49.158;8.632;2023-04-06T12:36:10;6.95;;;4.80;;
19149;SDS011;9707;49.158;8.632;2023-04-06T12:38:37;8.93;;;5.50;;
19149;SDS011;9707;49.158;8.632;2023-04-06T12:41:04;6.75;;;4.65;;
19149;SDS011;9707;49.158;8.632;2023-04-06T12:43:30;6.97;;;4.65;;
19149;SDS011;9707;49.158;8.632;2023-04-06T12:45:55;7.32;;;4.47;;
19149;SDS011;9707;49.158;8.632;2023-04-06T12:48:20;5.43;;;4.50;;
19149;SDS011;9707;49.158;8.632;2023-04-06T12:50:53;6.38;;;4.25;;
19149;SDS011;9707;49.158;8.632;2023-04-06T12:53:19;6.72;;;4.50;;
19149;SDS011;9707;49.158;8.632;2023-04-06T12:55:45;6.07;;;4.40;;
19149;SDS011;9707;49.158;8.632;2023-04-06T12:58:10;5.95;;;4.45;;
19149;SDS011;9707;49.158;8.632;2023-04-06T13:00:36;6.95;;;5.40;;
19149;SDS011;9707;49.158;8.632;2023-04-06T13:03:01;7.38;;;5.25;;
19149;SDS011;9707;49.158;8.632;2023-04-06T13:05:27;7.55;;;5.18;;
19149;SDS011;9707;49.158;8.632;2023-04-06T13:07:52;7.68;;;5.35;;
19149;SDS011;9707;49.158;8.632;2023-04-06T13:10:17;6.85;;;5.25;;
19149;SDS011;9707;49.158;8.632;2023-04-06T13:12:42;6.38;;;5.10;;
19149;SDS011;9707;49.158;8.632;2023-04-06T13:15:08;6.63;;;4.68;;
19149;SDS011;9707;49.158;8.632;2023-04-06T13:17:33;7.03;;;4.97;;
19149;SDS011;9707;49.158;8.632;2023-04-06T13:19:59;9.43;;;6.80;;
19149;SDS011;9707;49.158;8.632;2023-04-06T13:22:24;9.23;;;5.75;;
19149;SDS011;9707;49.158;8.632;2023-04-06T13:24:49;7.18;;;4.85;;
19149;SDS011;9707;49.158;8.632;2023-04-06T13:27:15;6.85;;;4.80;;
19149;SDS011;9707;49.158;8.632;2023-04-06T13:29:40;7.93;;;4.60;;
19149;SDS011;9707;49.158;8.632;2023-04-06T13:32:05;7.18;;;5.30;;
19149;SDS011;9707;49.158;8.632;2023-04-06T13:34:31;6.55;;;4.82;;
19149;SDS011;9707;49.158;8.632;2023-04-06T13:36:56;5.95;;;4.57;;
19149;SDS011;9707;49.158;8.632;2023-04-06T13:39:21;7.78;;;4.90;;
19149;SDS011;9707;49.158;8.632;2023-04-06T13:41:47;8.00;;;4.72;;
19149;SDS011;9707;49.158;8.632;2023-04-06T13:44:12;10.13;;;4.68;;
19149;SDS011;9707;49.158;8.632;2023-04-06T13:46:37;6.32;;;4.82;;
19149;SDS011;9707;49.158;8.632;2023-04-06T13:49:02;5.93;;;3.83;;
19149;SDS011;9707;49.158;8.632;2023-04-06T13:51:28;7.05;;;4.70;;
19149;SDS011;9707;49.158;8.632;2023-04-06T13:53:53;8.30;;;4.65;;
19149;SDS011;9707;49.158;8.632;2023-04-06T13:56:18;6.07;;;4.50;;
19149;SDS011;9707;49.158;8.632;2023-04-06T13:58:44;5.40;;;4.15;;
19149;SDS011;9707;49.158;8.632;2023-04-06T14:01:09;5.53;;;4.10;;
19149;SDS011;9707;49.158;8.632;2023-04-06T14:03:35;6.93;;;4.15;;
19149;SDS011;9707;49.158;8.632;2023-04-06T14:06:01;6.30;;;4.03;;
19149;SDS011;9707;49.158;8.632;2023-04-06T14:08:34;4.35;;;3.63;;
19149;SDS011;9707;49.158;8.632;2023-04-06T14:10:59;6.47;;;4.05;;
19149;SDS011;9707;49.158;8.632;2023-04-06T14:13:25;5.28;;;3.60;;
19149;SDS011;9707;49.158;8.632;2023-04-06T14:15:52;7.38;;;3.95;;
19149;SDS011;9707;49.158;8.632;2023-04-06T14:18:19;5.35;;;4.28;;
19149;SDS011;9707;49.158;8.632;2023-04-06T14:20:44;6.88;;;4.90;;
19149;SDS011;9707;49.158;8.632;2023-04-06T14:23:09;5.40;;;4.30;;
19149;SDS011;9707;49.158;8.632;2023-04-06T14:25:35;6.05;;;4.55;;
19149;SDS011;9707;49.158;8.632;2023-04-06T14:28:01;8.35;;;4.30;;
19149;SDS011;9707;49.158;8.632;2023-04-06T14:30:26;6.88;;;4.72;;
19149;SDS011;9707;49.158;8.632;2023-04-06T14:32:56;7.80;;;4.60;;
19149;SDS011;9707;49.158;8.632;2023-04-06T14:35:22;6.82;;;4.60;;
19149;SDS011;9707;49.158;8.632;2023-04-06T14:37:47;8.13;;;4.53;;
19149;SDS011;9707;49.158;8.632;2023-04-06T14:40:12;6.25;;;4.47;;
19149;SDS011;9707;49.158;8.632;2023-04-06T14:42:37;7.43;;;4.53;;
19149;SDS011;9707;49.158;8.632;2023-04-06T14:45:03;8.35;;;4.60;;
19149;SDS011;9707;49.158;8.632;2023-04-06T14:47:28;6.30;;;4.10;;
19149;SDS011;9707;49.158;8.632;2023-04-06T14:49:54;5.30;;;4.22;;
19149;SDS011;9707;49.158;8.632;2023-04-06T14:52:19;6.38;;;3.90;;
19149;SDS011;9707;49.158;8.632;2023-04-06T14:54:44;6.18;;;4.63;;
19149;SDS011;9707;49.158;8.632;2023-04-06T14:57:10;4.68;;;3.55;;